createdAt,value
2023-03-13T00:01:29.693Z,7.70
2023-03-13T00:04:00.517Z,7.70
2023-03-13T00:06:33.192Z,7.70
2023-03-13T00:09:05.953Z,7.70
2023-03-13T00:11:36.744Z,7.70
2023-03-13T00:14:10.322Z,7.70
2023-03-13T00:16:41.164Z,7.70
2023-03-13T00:19:10.659Z,7.70
2023-03-13T00:21:40.995Z,7.70
2023-03-13T00:24:10.906Z,7.70
2023-03-13T00:26:38.892Z,7.70
2023-03-13T00:29:08.616Z,7.70
2023-03-13T00:31:41.585Z,7.70
2023-03-13T00:34:14.199Z,7.70
2023-03-13T00:36:42.244Z,7.80
2023-03-13T00:39:10.689Z,7.70
2023-03-13T00:41:39.037Z,7.70
2023-03-13T00:44:07.334Z,7.70
2023-03-13T00:46:36.882Z,7.80
2023-03-13T00:49:05.202Z,7.70
2023-03-13T00:51:49.256Z,7.80
2023-03-13T00:54:18.560Z,7.80
2023-03-13T00:56:46.506Z,7.80
2023-03-13T00:59:16.159Z,7.80
2023-03-13T01:01:45.774Z,7.80
2023-03-13T01:04:13.870Z,7.80
2023-03-13T01:06:43.319Z,7.80
2023-03-13T01:09:12.584Z,7.80
2023-03-13T01:11:46.898Z,7.80
2023-03-13T01:14:15.960Z,7.90
2023-03-13T01:16:43.910Z,7.80
2023-03-13T01:19:13.665Z,7.80
2023-03-13T01:21:42.310Z,7.80
2023-03-13T01:24:10.282Z,7.80
2023-03-13T01:26:38.370Z,7.80
2023-03-13T01:29:07.762Z,7.80
2023-03-13T01:31:36.622Z,7.80
2023-03-13T01:34:05.985Z,7.80
2023-03-13T01:36:34.287Z,7.70
2023-03-13T01:39:02.370Z,7.70
2023-03-13T01:41:31.501Z,7.70
2023-03-13T01:43:59.810Z,7.70
2023-03-13T01:46:29.528Z,7.70
2023-03-13T01:49:03.403Z,7.70
2023-03-13T01:51:32.992Z,7.70
2023-03-13T01:54:04.350Z,7.70
2023-03-13T01:56:35.662Z,7.70
2023-03-13T01:59:04.131Z,7.70
2023-03-13T02:01:34.178Z,7.70
2023-03-13T02:04:02.411Z,7.70
2023-03-13T02:06:32.544Z,7.70
2023-03-13T02:09:06.179Z,7.70
2023-03-13T02:11:38.318Z,7.70
2023-03-13T02:14:06.745Z,7.70
2023-03-13T02:16:36.601Z,7.70
2023-03-13T02:19:06.966Z,7.70
2023-03-13T02:21:41.280Z,7.70
2023-03-13T02:24:14.540Z,7.70
2023-03-13T02:26:43.876Z,7.70
2023-03-13T02:29:18.278Z,7.70
2023-03-13T02:31:47.683Z,7.80
2023-03-13T02:34:16.886Z,7.80
2023-03-13T02:36:45.976Z,7.80
2023-03-13T02:39:14.801Z,7.80
2023-03-13T02:41:46.123Z,7.80
2023-03-13T02:44:14.087Z,7.80
2023-03-13T02:46:46.608Z,7.80
2023-03-13T02:49:20.982Z,7.80
2023-03-13T02:51:49.164Z,7.80
2023-03-13T02:54:18.892Z,7.80
2023-03-13T02:56:49.423Z,7.80
2023-03-13T02:59:17.669Z,7.80
2023-03-13T03:01:45.805Z,7.80
2023-03-13T03:04:13.902Z,7.80
2023-03-13T03:06:44.211Z,7.90
2023-03-13T03:09:12.305Z,7.90
2023-03-13T03:11:40.337Z,7.80
2023-03-13T03:14:11.137Z,7.90
2023-03-13T03:16:39.137Z,7.90
2023-03-13T03:19:08.502Z,7.90
2023-03-13T03:21:36.733Z,7.90
2023-03-13T03:24:05.013Z,7.90
2023-03-13T03:26:33.131Z,7.90
2023-03-13T03:29:01.099Z,7.90
2023-03-13T03:31:31.279Z,7.90
2023-03-13T03:33:59.419Z,7.90
2023-03-13T03:36:27.566Z,7.90
2023-03-13T03:38:55.780Z,7.90
2023-03-13T03:41:23.877Z,7.90
2023-03-13T03:43:55.322Z,7.90
2023-03-13T03:46:24.697Z,7.90
2023-03-13T03:48:54.707Z,7.90
2023-03-13T03:51:22.812Z,8.00
2023-03-13T03:53:50.938Z,8.00
2023-03-13T03:56:20.937Z,8.00
2023-03-13T03:58:48.953Z,8.00
2023-03-13T04:01:17.169Z,8.00
2023-03-13T04:03:45.345Z,8.10
2023-03-13T04:06:14.728Z,8.00
2023-03-13T04:08:42.778Z,8.10
2023-03-13T04:11:10.880Z,8.10
2023-03-13T04:13:38.854Z,8.10
2023-03-13T04:16:10.336Z,8.10
2023-03-13T04:18:38.372Z,8.10
2023-03-13T04:21:07.008Z,8.20
2023-03-13T04:23:36.312Z,8.20
2023-03-13T04:26:04.395Z,8.20
2023-03-13T04:28:32.325Z,8.20
2023-03-13T04:31:01.360Z,8.20
2023-03-13T04:33:30.391Z,8.20
2023-03-13T04:35:58.423Z,8.30
2023-03-13T04:38:26.392Z,8.30
2023-03-13T04:40:55.696Z,8.30
2023-03-13T04:43:29.528Z,8.30
2023-03-13T04:45:59.973Z,8.40
2023-03-13T04:48:27.910Z,8.40
2023-03-13T04:50:55.858Z,8.40
2023-03-13T04:53:23.832Z,8.50
2023-03-13T04:55:51.983Z,8.50
2023-03-13T04:58:21.306Z,8.50
2023-03-13T05:00:49.280Z,7.60
2023-03-13T05:03:17.268Z,8.50
2023-03-13T05:05:45.266Z,8.60
2023-03-13T05:08:15.327Z,8.60
2023-03-13T05:10:44.677Z,8.60
2023-03-13T05:13:12.679Z,8.70
2023-03-13T05:15:42.021Z,8.70
2023-03-13T05:18:10.103Z,8.80
2023-03-13T05:20:38.046Z,8.80
2023-03-13T05:23:05.999Z,8.80
2023-03-13T05:25:33.963Z,8.90
2023-03-13T05:28:02.057Z,8.90
2023-03-13T05:30:30.029Z,8.90
2023-03-13T05:32:59.489Z,8.90
2023-03-13T05:35:27.597Z,9.00
2023-03-13T05:37:55.705Z,9.00
2023-03-13T05:40:26.548Z,9.00
2023-03-13T05:42:54.500Z,9.10
2023-03-13T05:45:24.020Z,9.10
2023-03-13T05:47:52.069Z,9.20
2023-03-13T05:50:21.485Z,9.20
2023-03-13T05:52:49.461Z,9.20
2023-03-13T05:55:17.547Z,9.30
2023-03-13T05:57:46.092Z,9.30
2023-03-13T06:00:16.388Z,9.40
2023-03-13T06:02:44.762Z,9.40
2023-03-13T06:05:12.760Z,9.50
2023-03-13T06:07:42.106Z,9.50
2023-03-13T06:10:10.812Z,9.50
2023-03-13T06:12:38.759Z,9.60
2023-03-13T06:15:11.910Z,9.60
2023-03-13T06:17:40.270Z,9.60
2023-03-13T06:20:08.715Z,9.70
2023-03-13T06:22:36.682Z,9.70
2023-03-13T06:25:06.634Z,9.80
2023-03-13T06:27:35.514Z,9.80
2023-03-13T06:30:03.636Z,9.90
2023-03-13T06:32:35.896Z,9.90
2023-03-13T06:35:04.629Z,10.00
2023-03-13T06:37:33.744Z,10.00
2023-03-13T06:40:01.832Z,10.10
2023-03-13T06:42:31.268Z,10.20
2023-03-13T06:44:59.226Z,10.20
2023-03-13T06:47:27.935Z,10.20
2023-03-13T06:49:55.892Z,10.30
2023-03-13T06:52:37.465Z,10.30
2023-03-13T06:55:09.912Z,10.40
2023-03-13T06:57:41.061Z,10.40
2023-03-13T07:00:11.424Z,10.50
2023-03-13T07:02:39.402Z,10.50
2023-03-13T07:05:09.174Z,10.60
2023-03-13T07:07:37.195Z,10.60
2023-03-13T07:10:05.448Z,10.60
2023-03-13T07:12:33.449Z,10.70
2023-03-13T07:15:02.798Z,10.70
2023-03-13T07:17:30.872Z,10.70
2023-03-13T07:19:58.887Z,10.80
2023-03-13T07:22:26.916Z,10.80
2023-03-13T07:24:56.539Z,10.80
2023-03-13T07:27:24.656Z,10.90
2023-03-13T07:29:52.639Z,10.90
2023-03-13T07:32:21.996Z,10.90
2023-03-13T07:34:50.058Z,10.90
2023-03-13T07:37:18.281Z,11.00
2023-03-13T07:39:46.207Z,11.10
2023-03-13T07:42:14.211Z,11.10
2023-03-13T07:44:42.208Z,11.10
2023-03-13T07:47:10.424Z,11.10
2023-03-13T07:49:43.828Z,11.20
2023-03-13T07:52:11.785Z,11.20
2023-03-13T07:54:40.729Z,11.20
2023-03-13T07:57:09.160Z,10.40
2023-03-13T07:59:37.165Z,11.30
2023-03-13T08:02:05.542Z,11.30
2023-03-13T08:04:33.600Z,11.30
2023-03-13T08:07:02.926Z,11.30
2023-03-13T08:09:33.226Z,11.40
2023-03-13T08:12:01.173Z,11.50
2023-03-13T08:14:29.213Z,11.40
2023-03-13T08:16:57.162Z,11.40
2023-03-13T08:19:25.196Z,11.40
2023-03-13T08:21:53.157Z,11.40
2023-03-13T08:24:22.883Z,11.40
2023-03-13T08:26:52.030Z,11.40
2023-03-13T08:29:19.995Z,11.40
2023-03-13T08:31:48.554Z,11.40
2023-03-13T08:34:17.098Z,11.40
2023-03-13T08:36:45.374Z,11.40
2023-03-13T08:39:14.263Z,11.40
2023-03-13T08:41:43.790Z,11.40
2023-03-13T08:44:12.835Z,11.40
2023-03-13T08:46:41.005Z,11.50
2023-03-13T08:49:09.544Z,11.50
2023-03-13T08:51:38.284Z,11.50
2023-03-13T08:54:06.542Z,11.50
2023-03-13T08:56:35.054Z,11.60
2023-03-13T08:59:05.638Z,11.60
2023-03-13T09:01:34.844Z,11.60
2023-03-13T09:04:04.638Z,11.70
2023-03-13T09:06:33.433Z,11.70
2023-03-13T09:09:01.462Z,11.70
2023-03-13T09:11:29.440Z,11.70
2023-03-13T09:13:59.224Z,11.70
2023-03-13T09:16:29.234Z,11.70
2023-03-13T09:18:57.462Z,11.70
2023-03-13T09:21:26.349Z,11.70
2023-03-13T09:23:54.328Z,11.70
2023-03-13T09:26:23.546Z,11.70
2023-03-13T09:28:51.675Z,11.70
2023-03-13T09:31:21.204Z,11.70
2023-03-13T09:33:51.131Z,11.80
2023-03-13T09:36:22.026Z,11.80
2023-03-13T09:38:50.901Z,11.90
2023-03-13T09:41:24.658Z,11.90
2023-03-13T09:43:54.663Z,11.90
2023-03-13T09:46:25.245Z,11.90
2023-03-13T09:48:57.246Z,12.00
2023-03-13T09:51:27.246Z,12.10
2023-03-13T09:53:58.593Z,12.10
2023-03-13T09:56:29.029Z,12.20
2023-03-13T09:58:59.645Z,12.20
2023-03-13T10:01:29.791Z,12.20
2023-03-13T10:04:03.612Z,12.30
2023-03-13T10:06:34.476Z,12.30
2023-03-13T10:09:02.770Z,12.40
2023-03-13T10:11:34.592Z,12.50
2023-03-13T10:14:05.146Z,12.50
2023-03-13T10:16:35.944Z,12.40
2023-03-13T10:19:11.762Z,12.60
2023-03-13T10:21:40.139Z,12.60
2023-03-13T10:24:15.481Z,12.70
2023-03-13T10:26:43.563Z,12.80
2023-03-13T10:29:20.848Z,12.90
2023-03-13T10:31:51.973Z,12.90
2023-03-13T10:34:21.282Z,13.00
2023-03-13T10:36:50.288Z,13.10
2023-03-13T10:39:19.112Z,13.10
2023-03-13T10:41:47.492Z,13.20
2023-03-13T10:44:18.926Z,13.20
2023-03-13T10:46:48.351Z,13.30
2023-03-13T10:49:19.207Z,13.30
2023-03-13T10:51:50.448Z,13.40
2023-03-13T10:54:23.460Z,13.40
2023-03-13T10:56:51.570Z,13.40
2023-03-13T10:59:21.747Z,13.40
2023-03-13T11:01:49.910Z,13.40
2023-03-13T11:04:21.751Z,13.40
2023-03-13T11:06:53.634Z,13.50
2023-03-13T11:09:21.617Z,13.60
2023-03-13T11:11:50.635Z,13.70
2023-03-13T11:14:19.673Z,13.80
2023-03-13T11:16:56.422Z,13.80
2023-03-13T11:19:34.611Z,13.70
2023-03-13T11:22:16.178Z,13.70
2023-03-13T11:24:50.352Z,13.80
2023-03-13T11:27:22.469Z,13.70
2023-03-13T11:29:56.033Z,13.70
2023-03-13T11:32:25.018Z,13.70
2023-03-13T11:34:54.201Z,13.70
2023-03-13T11:37:28.705Z,13.70
2023-03-13T11:40:00.879Z,13.70
2023-03-13T11:42:35.858Z,13.70
2023-03-13T11:45:06.898Z,13.70
2023-03-13T11:47:42.641Z,13.80
2023-03-13T11:50:16.646Z,13.80
2023-03-13T11:52:52.980Z,13.90
2023-03-13T11:55:34.277Z,14.00
2023-03-13T11:58:07.405Z,14.00
2023-03-13T12:00:37.339Z,14.20
2023-03-13T12:03:07.674Z,14.30
2023-03-13T12:05:39.804Z,14.50
2023-03-13T12:08:12.265Z,14.60
2023-03-13T12:10:41.897Z,14.80
2023-03-13T12:13:14.178Z,14.80
2023-03-13T12:15:43.330Z,14.90
2023-03-13T12:18:16.907Z,15.00
2023-03-13T12:20:47.351Z,15.00
2023-03-13T12:23:20.480Z,15.10
2023-03-13T12:25:51.626Z,15.10
2023-03-13T12:28:26.821Z,15.10
2023-03-13T12:31:00.386Z,15.20
2023-03-13T12:33:31.309Z,15.20
2023-03-13T12:36:03.196Z,15.20
2023-03-13T12:38:37.138Z,15.30
2023-03-13T12:41:09.476Z,15.40
2023-03-13T12:43:40.334Z,15.60
2023-03-13T12:46:17.134Z,15.60
2023-03-13T12:49:03.029Z,15.60
2023-03-13T12:51:38.013Z,15.60
2023-03-13T12:54:23.990Z,15.70
2023-03-13T12:57:15.896Z,15.70
2023-03-13T12:59:45.396Z,15.80
2023-03-13T13:02:17.814Z,16.00
2023-03-13T13:04:47.710Z,16.00
2023-03-13T13:07:24.060Z,16.10
2023-03-13T13:10:15.548Z,16.20
2023-03-13T13:12:45.313Z,16.30
2023-03-13T13:15:17.481Z,16.30
2023-03-13T13:18:06.830Z,16.50
2023-03-13T13:20:46.175Z,16.70
2023-03-13T13:35:22.073Z,17.00
2023-03-13T13:37:52.425Z,16.70
2023-03-13T13:40:21.843Z,16.70
2023-03-13T13:42:54.010Z,16.60
2023-03-13T13:45:25.448Z,16.60
2023-03-13T13:48:13.471Z,17.00
2023-03-13T13:51:04.923Z,17.20
2023-03-13T13:53:34.794Z,17.60
2023-03-13T13:56:10.167Z,18.00
2023-03-13T13:58:40.724Z,17.80
2023-03-13T14:01:11.202Z,17.60
2023-03-13T14:03:43.247Z,17.30
2023-03-13T14:06:18.199Z,17.10
2023-03-13T14:08:46.998Z,17.00
2023-03-13T14:11:25.951Z,17.30
2023-03-13T14:14:14.757Z,17.90
2023-03-13T14:16:47.347Z,18.20
2023-03-13T14:19:25.545Z,18.60
2023-03-13T14:22:00.137Z,18.30
2023-03-13T14:24:28.163Z,18.20
2023-03-13T14:26:56.355Z,18.10
2023-03-13T14:29:26.493Z,18.10
2023-03-13T14:31:55.277Z,18.30
2023-03-13T14:34:23.571Z,18.30
2023-03-13T14:36:52.432Z,18.10
2023-03-13T14:39:23.224Z,18.00
2023-03-13T14:41:55.338Z,17.80
2023-03-13T14:44:25.529Z,17.60
2023-03-13T14:46:55.856Z,17.40
2023-03-13T14:49:25.686Z,17.20
2023-03-13T14:51:59.757Z,17.10
2023-03-13T14:54:30.531Z,17.00
2023-03-13T14:57:14.948Z,17.20
2023-03-13T14:59:43.364Z,17.50
2023-03-13T15:02:16.378Z,18.20
2023-03-13T15:04:59.650Z,18.50
2023-03-13T15:07:32.523Z,18.20
2023-03-13T15:10:01.846Z,17.70
2023-03-13T15:12:31.379Z,17.80
2023-03-13T15:15:02.275Z,17.70
2023-03-13T15:17:30.272Z,17.50
2023-03-13T15:20:01.096Z,17.60
2023-03-13T15:22:30.222Z,17.50
2023-03-13T15:25:06.431Z,17.50
2023-03-13T15:27:39.430Z,17.60
2023-03-13T15:30:08.066Z,17.70
2023-03-13T15:32:38.165Z,17.80
2023-03-13T15:35:12.816Z,17.80
2023-03-13T15:37:40.810Z,17.90
2023-03-13T15:40:15.126Z,17.80
2023-03-13T15:42:44.536Z,17.70
2023-03-13T15:45:12.814Z,17.70
2023-03-13T15:47:40.784Z,17.60
2023-03-13T15:50:12.342Z,17.50
2023-03-13T15:52:40.635Z,17.40
2023-03-13T15:55:09.962Z,17.30
2023-03-13T15:57:39.020Z,17.20
2023-03-13T16:00:13.324Z,17.10
2023-03-13T16:02:41.283Z,17.00
2023-03-13T16:05:12.956Z,16.90
2023-03-13T16:07:40.930Z,16.80
2023-03-13T16:10:15.719Z,16.70
2023-03-13T16:12:43.723Z,16.60
2023-03-13T16:15:13.100Z,16.60
2023-03-13T16:17:41.168Z,16.50
2023-03-13T16:20:13.853Z,16.40
2023-03-13T16:22:41.803Z,16.40
2023-03-13T16:25:10.203Z,16.30
2023-03-13T16:27:39.387Z,16.30
2023-03-13T16:30:08.323Z,16.30
2023-03-13T16:32:40.246Z,16.40
2023-03-13T16:35:12.937Z,16.50
2023-03-13T16:37:40.914Z,16.60
2023-03-13T16:40:16.376Z,16.60
2023-03-13T16:42:44.414Z,16.70
2023-03-13T16:45:13.256Z,16.60
2023-03-13T16:47:43.017Z,16.50
2023-03-13T16:50:16.267Z,16.30
2023-03-13T16:52:44.295Z,16.30
2023-03-13T16:55:12.243Z,16.10
2023-03-13T16:57:40.256Z,16.00
2023-03-13T17:00:14.437Z,15.90
2023-03-13T17:02:43.852Z,15.80
2023-03-13T17:05:16.013Z,15.60
2023-03-13T17:07:45.179Z,15.50
2023-03-13T17:10:16.990Z,15.40
2023-03-13T17:12:44.962Z,15.40
2023-03-13T17:15:13.297Z,15.20
2023-03-13T17:17:41.623Z,15.20
2023-03-13T17:20:13.986Z,15.00
2023-03-13T17:22:42.517Z,15.00
2023-03-13T17:25:11.077Z,14.90
2023-03-13T17:27:40.686Z,14.80
2023-03-13T17:30:18.039Z,14.80
2023-03-13T17:32:46.039Z,14.70
2023-03-13T17:35:15.475Z,14.60
2023-03-13T17:37:44.545Z,14.50
2023-03-13T17:40:21.731Z,14.50
2023-03-13T17:42:49.871Z,14.40
2023-03-13T17:45:17.989Z,14.40
2023-03-13T17:47:46.049Z,14.30
2023-03-13T17:50:19.464Z,14.30
2023-03-13T17:52:47.487Z,14.20
2023-03-13T17:55:15.591Z,14.10
2023-03-13T17:57:44.256Z,14.00
2023-03-13T18:00:18.219Z,14.00
2023-03-13T18:02:46.303Z,13.90
2023-03-13T18:05:14.458Z,13.90
2023-03-13T18:07:44.754Z,13.70
2023-03-13T18:10:22.314Z,13.70
2023-03-13T18:12:51.330Z,13.70
2023-03-13T18:15:19.799Z,13.60
2023-03-13T18:17:48.098Z,13.50
2023-03-13T18:20:18.086Z,13.50
2023-03-13T18:22:47.914Z,13.40
2023-03-13T18:25:16.229Z,13.40
2023-03-13T18:27:44.171Z,13.30
2023-03-13T18:30:16.013Z,13.30
2023-03-13T18:32:44.195Z,13.20
2023-03-13T18:35:13.619Z,13.20
2023-03-13T18:37:41.970Z,13.10
2023-03-13T18:40:18.934Z,13.10
2023-03-13T18:42:46.918Z,13.00
2023-03-13T18:45:15.447Z,13.00
2023-03-13T18:47:43.452Z,13.00
2023-03-13T18:50:19.117Z,12.90
2023-03-13T18:52:47.076Z,12.80
2023-03-13T18:55:15.309Z,12.80
2023-03-13T18:57:44.676Z,12.80
2023-03-13T19:00:15.804Z,12.70
2023-03-13T19:02:44.519Z,12.70
2023-03-13T19:05:12.904Z,12.70
2023-03-13T19:07:40.958Z,12.70
2023-03-13T19:10:17.392Z,12.60
2023-03-13T19:12:47.090Z,12.60
2023-03-13T19:15:15.701Z,12.60
2023-03-13T19:17:43.850Z,12.50
2023-03-13T19:20:15.301Z,12.50
2023-03-13T19:22:43.280Z,12.40
2023-03-13T19:25:11.421Z,12.40
2023-03-13T19:27:41.905Z,12.30
2023-03-13T19:30:17.537Z,12.30
2023-03-13T19:32:45.561Z,12.30
2023-03-13T19:35:13.815Z,12.30
2023-03-13T19:37:41.782Z,12.30
2023-03-13T19:40:16.881Z,12.20
2023-03-13T19:42:44.879Z,12.20
2023-03-13T19:45:13.426Z,12.20
2023-03-13T19:47:42.811Z,12.20
2023-03-13T19:50:16.161Z,12.10
2023-03-13T19:52:45.456Z,12.10
2023-03-13T19:55:13.810Z,12.10
2023-03-13T19:57:41.897Z,12.10
2023-03-13T20:00:16.837Z,12.10
2023-03-13T20:02:46.342Z,12.00
2023-03-13T20:05:14.333Z,12.00
2023-03-13T20:07:42.388Z,12.00
2023-03-13T20:10:10.937Z,12.00
2023-03-13T20:12:39.276Z,11.90
2023-03-13T20:15:07.969Z,11.90
2023-03-13T20:17:36.314Z,11.80
2023-03-13T20:20:08.348Z,11.80
2023-03-13T20:22:36.614Z,11.80
2023-03-13T20:25:06.874Z,11.80
2023-03-13T20:27:35.183Z,11.70
2023-03-13T20:30:03.156Z,11.70
2023-03-13T20:32:31.195Z,11.70
2023-03-13T20:34:59.481Z,11.60
2023-03-13T20:37:28.915Z,11.60
2023-03-13T20:39:57.004Z,11.60
2023-03-13T20:42:25.189Z,11.50
2023-03-13T20:44:53.239Z,11.50
2023-03-13T20:47:27.909Z,11.50
2023-03-13T20:49:55.927Z,11.50
2023-03-13T20:52:28.556Z,11.50
2023-03-13T20:54:58.169Z,11.50
2023-03-13T20:57:29.203Z,11.50
2023-03-13T20:59:57.798Z,11.50
2023-03-13T21:02:26.052Z,11.40
2023-03-13T21:04:54.139Z,11.40
2023-03-13T21:07:22.622Z,11.40
2023-03-13T21:09:50.702Z,11.30
2023-03-13T21:12:20.265Z,11.30
2023-03-13T21:14:49.285Z,11.30
2023-03-13T21:17:17.377Z,11.30
2023-03-13T21:19:45.565Z,11.30
2023-03-13T21:22:13.888Z,11.30
2023-03-13T21:24:42.229Z,11.30
2023-03-13T21:27:10.244Z,11.30
2023-03-13T21:29:40.867Z,11.40
2023-03-13T21:32:09.166Z,11.30
2023-03-13T21:34:37.218Z,11.40
2023-03-13T21:37:05.301Z,11.40
2023-03-13T21:39:39.554Z,11.40
2023-03-13T21:42:07.788Z,11.40
2023-03-13T21:44:35.973Z,11.40
2023-03-13T21:47:05.429Z,11.50
2023-03-13T21:49:33.508Z,11.50
2023-03-13T21:52:01.499Z,11.50
2023-03-13T21:54:29.508Z,11.50
2023-03-13T21:57:00.224Z,11.50
2023-03-13T21:59:30.350Z,11.50
2023-03-13T22:01:58.328Z,11.50
2023-03-13T22:04:27.816Z,11.50
2023-03-13T22:06:55.786Z,11.50
2023-03-13T22:09:23.777Z,11.50
2023-03-13T22:11:53.435Z,11.50
2023-03-13T22:14:21.713Z,11.50
2023-03-13T22:16:50.520Z,11.50
2023-03-13T22:19:18.513Z,11.40
2023-03-13T22:21:58.291Z,11.40
2023-03-13T22:24:26.337Z,11.40
2023-03-13T22:26:54.397Z,11.40
2023-03-13T22:29:23.965Z,11.40
2023-03-13T22:31:55.082Z,11.40
2023-03-13T22:34:23.064Z,11.40
2023-03-13T22:36:52.387Z,11.30
2023-03-13T22:39:20.332Z,11.30
2023-03-13T22:41:49.346Z,11.30
2023-03-13T22:44:17.402Z,11.30
2023-03-13T22:46:45.384Z,11.30
2023-03-13T22:49:14.596Z,11.30
2023-03-13T22:51:42.575Z,11.20
2023-03-13T22:54:23.017Z,11.20
2023-03-13T22:56:50.980Z,11.20
2023-03-13T22:59:18.916Z,11.20
2023-03-13T23:01:46.884Z,11.20
2023-03-13T23:04:16.763Z,11.20
2023-03-13T23:06:44.731Z,11.20
2023-03-13T23:09:12.705Z,11.10
2023-03-13T23:11:44.998Z,11.10
2023-03-13T23:14:13.106Z,11.10
2023-03-13T23:16:46.830Z,11.10
2023-03-13T23:19:17.867Z,11.10
2023-03-13T23:21:45.843Z,11.10
2023-03-13T23:24:13.853Z,11.10
2023-03-13T23:26:43.289Z,11.10
2023-03-13T23:29:14.657Z,11.10
2023-03-13T23:31:45.686Z,11.10
2023-03-13T23:34:21.848Z,11.10
2023-03-13T23:36:54.324Z,11.10
2023-03-13T23:39:22.291Z,11.10
2023-03-13T23:41:50.220Z,11.10
2023-03-13T23:44:19.558Z,11.10
2023-03-13T23:46:50.556Z,11.00
2023-03-13T23:49:20.180Z,11.00
2023-03-13T23:51:51.274Z,11.00
2023-03-13T23:54:19.272Z,11.00
2023-03-13T23:56:50.331Z,11.00
2023-03-13T23:59:19.664Z,11.00
